createdAt,value
2024-03-18T00:00:37.112Z,14.70
2024-03-18T00:01:37.135Z,14.72
2024-03-18T00:02:37.208Z,14.70
2024-03-18T00:03:37.288Z,14.71
2024-03-18T00:04:37.269Z,14.71
2024-03-18T00:05:37.340Z,14.70
2024-03-18T00:06:37.371Z,14.69
2024-03-18T00:07:37.394Z,14.69
2024-03-18T00:08:37.468Z,14.70
2024-03-18T00:09:37.560Z,14.70
2024-03-18T00:10:37.578Z,14.72
2024-03-18T00:11:37.631Z,14.72
2024-03-18T00:12:37.687Z,14.72
2024-03-18T00:13:37.745Z,14.75
2024-03-18T00:14:37.807Z,14.73
2024-03-18T00:15:37.892Z,14.72
2024-03-18T00:16:37.985Z,14.68
2024-03-18T00:17:37.962Z,14.66
2024-03-18T00:18:38.065Z,14.66
2024-03-18T00:19:38.045Z,14.64
2024-03-18T00:20:38.119Z,14.62
2024-03-18T00:21:38.204Z,14.59
2024-03-18T00:22:38.313Z,14.59
2024-03-18T00:23:38.294Z,14.58
2024-03-18T00:24:38.313Z,14.58
2024-03-18T00:25:38.411Z,14.60
2024-03-18T00:26:38.463Z,14.62
2024-03-18T00:27:38.524Z,14.62
2024-03-18T00:28:38.628Z,14.60
2024-03-18T00:29:38.628Z,14.63
2024-03-18T00:30:42.647Z,14.62
2024-03-18T00:31:39.704Z,14.63
2024-03-18T00:32:38.687Z,14.63
2024-03-18T00:33:38.745Z,14.64
2024-03-18T00:34:38.694Z,14.63
2024-03-18T00:35:38.711Z,14.62
2024-03-18T00:36:38.704Z,14.61
2024-03-18T00:37:38.704Z,14.59
2024-03-18T00:38:38.738Z,14.60
2024-03-18T00:39:38.752Z,14.59
2024-03-18T00:40:38.870Z,14.60
2024-03-18T00:41:38.759Z,14.58
2024-03-18T00:42:38.846Z,14.55
2024-03-18T00:43:38.941Z,14.56
2024-03-18T00:44:38.992Z,14.55
2024-03-18T00:45:39.109Z,14.55
2024-03-18T00:46:39.110Z,14.55
2024-03-18T00:47:39.169Z,14.55
2024-03-18T00:48:39.237Z,14.56
2024-03-18T00:49:39.333Z,14.55
2024-03-18T00:50:39.354Z,14.51
2024-03-18T00:51:39.438Z,14.52
2024-03-18T00:52:39.507Z,14.55
2024-03-18T00:53:39.561Z,14.57
2024-03-18T00:54:39.601Z,14.58
2024-03-18T00:55:39.665Z,14.58
2024-03-18T00:56:39.866Z,14.57
2024-03-18T00:57:39.771Z,14.59
2024-03-18T00:58:39.834Z,14.59
2024-03-18T00:59:39.912Z,14.58
2024-03-18T01:00:39.979Z,14.54
2024-03-18T01:01:40.003Z,14.52
2024-03-18T01:02:40.098Z,14.50
2024-03-18T01:03:40.151Z,14.50
2024-03-18T01:04:40.201Z,14.50
2024-03-18T01:05:40.268Z,14.51
2024-03-18T01:06:40.328Z,14.45
2024-03-18T01:07:40.370Z,14.43
2024-03-18T01:08:40.477Z,14.42
2024-03-18T01:09:40.536Z,14.44
2024-03-18T01:10:40.647Z,14.45
2024-03-18T01:11:40.646Z,14.42
2024-03-18T01:12:40.859Z,14.42
2024-03-18T01:13:40.824Z,14.42
2024-03-18T01:14:40.866Z,14.42
2024-03-18T01:15:41.021Z,14.45
2024-03-18T01:16:41.006Z,14.45
2024-03-18T01:17:41.063Z,14.47
2024-03-18T01:18:41.145Z,14.48
2024-03-18T01:19:41.237Z,14.50
2024-03-18T01:20:41.435Z,14.51
2024-03-18T01:21:41.339Z,14.52
2024-03-18T01:22:41.410Z,14.47
2024-03-18T01:23:41.489Z,14.38
2024-03-18T01:24:41.538Z,14.34
2024-03-18T01:25:41.608Z,14.35
2024-03-18T01:26:41.687Z,14.29
2024-03-18T01:27:41.833Z,14.27
2024-03-18T01:28:41.775Z,14.30
2024-03-18T01:29:41.807Z,14.31
2024-03-18T01:30:41.938Z,14.34
2024-03-18T01:31:41.951Z,14.34
2024-03-18T01:32:41.983Z,14.34
2024-03-18T01:33:42.056Z,14.35
2024-03-18T01:34:42.102Z,14.35
2024-03-18T01:35:42.164Z,14.35
2024-03-18T01:36:42.217Z,14.35
2024-03-18T01:37:42.366Z,14.35
2024-03-18T01:38:42.267Z,14.34
2024-03-18T01:39:42.309Z,14.31
2024-03-18T01:40:42.387Z,14.32
2024-03-18T01:41:42.399Z,14.32
2024-03-18T01:42:42.465Z,14.30
2024-03-18T01:43:42.448Z,14.27
2024-03-18T01:44:42.462Z,14.27
2024-03-18T01:45:42.461Z,14.30
2024-03-18T01:46:42.483Z,14.32
2024-03-18T01:47:42.573Z,14.32
2024-03-18T01:48:42.508Z,14.34
2024-03-18T01:49:42.530Z,14.32
2024-03-18T01:50:42.564Z,14.32
2024-03-18T01:51:42.578Z,14.31
2024-03-18T01:52:42.525Z,14.30
2024-03-18T01:53:42.600Z,14.30
2024-03-18T01:54:42.628Z,14.31
2024-03-18T01:55:42.633Z,14.30
2024-03-18T01:56:42.703Z,14.22
2024-03-18T01:57:42.675Z,14.21
2024-03-18T01:58:42.728Z,14.23
2024-03-18T01:59:42.736Z,14.21
2024-03-18T02:00:42.783Z,14.23
2024-03-18T02:01:42.742Z,14.24
2024-03-18T02:02:42.734Z,14.23
2024-03-18T02:03:42.763Z,14.23
2024-03-18T02:04:42.814Z,14.23
2024-03-18T02:05:42.805Z,14.26
2024-03-18T02:06:42.835Z,14.25
2024-03-18T02:07:42.801Z,14.27
2024-03-18T02:08:42.846Z,14.26
2024-03-18T02:09:42.852Z,14.23
2024-03-18T02:10:42.985Z,14.16
2024-03-18T02:11:42.876Z,14.16
2024-03-18T02:12:42.847Z,14.14
2024-03-18T02:13:42.934Z,14.17
2024-03-18T02:14:42.923Z,14.19
2024-03-18T02:15:43.404Z,14.20
2024-03-18T02:16:42.976Z,14.19
2024-03-18T02:17:42.911Z,14.21
2024-03-18T02:18:42.920Z,14.23
2024-03-18T02:19:42.976Z,14.25
2024-03-18T02:20:42.960Z,14.20
2024-03-18T02:21:43.003Z,14.18
2024-03-18T02:22:42.987Z,14.07
2024-03-18T02:23:43.007Z,13.99
2024-03-18T02:24:43.016Z,14.03
2024-03-18T02:25:43.052Z,14.08
2024-03-18T02:26:43.044Z,14.12
2024-03-18T02:27:43.064Z,14.16
2024-03-18T02:28:43.104Z,14.17
2024-03-18T02:29:43.089Z,14.18
2024-03-18T02:30:43.096Z,14.20
2024-03-18T02:31:43.113Z,14.20
2024-03-18T02:32:43.211Z,14.22
2024-03-18T02:33:43.172Z,14.25
2024-03-18T02:34:43.171Z,14.22
2024-03-18T02:35:43.175Z,14.17
2024-03-18T02:36:43.200Z,14.10
2024-03-18T02:37:43.219Z,13.91
2024-03-18T02:38:43.202Z,13.80
2024-03-18T02:39:43.271Z,13.70
2024-03-18T02:40:43.420Z,13.68
2024-03-18T02:41:43.279Z,13.69
2024-03-18T02:42:43.332Z,13.71
2024-03-18T02:43:43.334Z,13.79
2024-03-18T02:44:43.348Z,13.83
2024-03-18T02:45:43.477Z,13.91
2024-03-18T02:46:43.349Z,13.99
2024-03-18T02:47:43.399Z,14.00
2024-03-18T02:48:43.407Z,13.99
2024-03-18T02:49:43.481Z,13.99
2024-03-18T02:50:43.421Z,14.03
2024-03-18T02:51:43.447Z,14.06
2024-03-18T02:52:43.489Z,14.07
2024-03-18T02:53:43.582Z,14.09
2024-03-18T02:54:43.471Z,14.07
2024-03-18T02:55:43.525Z,14.06
2024-03-18T02:56:43.546Z,14.06
2024-03-18T02:57:43.575Z,14.07
2024-03-18T02:58:43.537Z,14.07
2024-03-18T02:59:43.581Z,14.08
2024-03-18T03:00:43.550Z,14.10
2024-03-18T03:01:43.611Z,14.11
2024-03-18T03:02:43.603Z,14.12
2024-03-18T03:03:43.728Z,14.10
2024-03-18T03:04:43.640Z,14.08
2024-03-18T03:05:43.698Z,14.06
2024-03-18T03:06:43.674Z,13.92
2024-03-18T03:07:46.527Z,13.87
2024-03-18T03:08:43.711Z,13.89
2024-03-18T03:09:43.690Z,13.93
2024-03-18T03:10:43.886Z,13.94
2024-03-18T03:11:43.691Z,13.87
2024-03-18T03:12:43.772Z,13.84
2024-03-18T03:13:43.690Z,13.87
2024-03-18T03:14:43.706Z,13.88
2024-03-18T03:15:43.929Z,13.91
2024-03-18T03:16:43.723Z,13.80
2024-03-18T03:17:43.729Z,13.63
2024-03-18T03:18:43.718Z,13.52
2024-03-18T03:19:43.714Z,13.43
2024-03-18T03:20:43.913Z,13.36
2024-03-18T03:21:43.789Z,13.44
2024-03-18T03:22:43.765Z,13.48
2024-03-18T03:23:43.728Z,13.55
2024-03-18T03:24:43.746Z,13.64
2024-03-18T03:25:43.935Z,13.70
2024-03-18T03:26:43.769Z,13.75
2024-03-18T03:27:43.742Z,13.75
2024-03-18T03:28:43.764Z,13.73
2024-03-18T03:29:43.719Z,13.71
2024-03-18T03:30:43.893Z,13.66
2024-03-18T03:31:43.714Z,13.54
2024-03-18T03:32:43.775Z,13.41
2024-03-18T03:33:43.718Z,13.42
2024-03-18T03:34:43.806Z,13.47
2024-03-18T03:35:43.923Z,13.50
2024-03-18T03:36:43.743Z,13.51
2024-03-18T03:37:43.732Z,13.44
2024-03-18T03:38:43.769Z,13.40
2024-03-18T03:39:43.746Z,13.38
2024-03-18T03:40:43.922Z,13.25
2024-03-18T03:41:43.773Z,13.15
2024-03-18T03:42:43.769Z,13.09
2024-03-18T03:43:43.888Z,13.03
2024-03-18T03:44:43.786Z,12.98
2024-03-18T03:45:43.925Z,12.98
2024-03-18T03:46:43.759Z,12.99
2024-03-18T03:47:43.817Z,12.99
2024-03-18T03:48:43.798Z,12.97
2024-03-18T03:49:43.792Z,12.91
2024-03-18T03:50:43.973Z,12.88
2024-03-18T03:51:43.799Z,12.89
2024-03-18T03:52:43.799Z,13.01
2024-03-18T03:53:43.825Z,12.98
2024-03-18T03:54:43.813Z,12.96
2024-03-18T03:55:43.917Z,12.93
2024-03-18T03:56:43.773Z,13.00
2024-03-18T03:57:43.819Z,13.04
2024-03-18T03:58:43.808Z,13.09
2024-03-18T03:59:43.828Z,13.15
2024-03-18T04:00:43.903Z,13.19
2024-03-18T04:01:43.802Z,13.14
2024-03-18T04:02:43.813Z,13.10
2024-03-18T04:03:43.809Z,13.07
2024-03-18T04:04:43.802Z,13.08
2024-03-18T04:05:43.957Z,13.01
2024-03-18T04:06:43.779Z,12.90
2024-03-18T04:07:43.842Z,12.93
2024-03-18T04:08:43.815Z,12.94
2024-03-18T04:09:43.818Z,12.97
2024-03-18T04:10:43.963Z,12.95
2024-03-18T04:11:43.794Z,12.89
2024-03-18T04:12:43.830Z,12.96
2024-03-18T04:13:43.847Z,12.98
2024-03-18T04:14:43.790Z,12.94
2024-03-18T04:15:43.928Z,13.00
2024-03-18T04:16:43.835Z,13.06
2024-03-18T04:17:43.817Z,13.14
2024-03-18T04:18:43.825Z,13.16
2024-03-18T04:19:43.854Z,13.18
2024-03-18T04:20:43.938Z,13.28
2024-03-18T04:21:43.851Z,13.36
2024-03-18T04:22:43.833Z,13.37
2024-03-18T04:23:43.846Z,13.27
2024-03-18T04:24:43.863Z,13.19
2024-03-18T04:25:43.885Z,13.25
2024-03-18T04:26:43.877Z,13.33
2024-03-18T04:27:43.857Z,13.32
2024-03-18T04:28:43.850Z,13.21
2024-03-18T04:29:43.855Z,13.15
2024-03-18T04:30:43.926Z,13.16
2024-03-18T04:31:43.996Z,13.19
2024-03-18T04:32:43.941Z,13.24
2024-03-18T04:33:44.038Z,13.35
2024-03-18T04:34:44.054Z,13.42
2024-03-18T04:35:44.412Z,13.46
2024-03-18T04:36:44.207Z,13.52
2024-03-18T04:37:44.216Z,13.46
2024-03-18T04:38:44.234Z,13.40
2024-03-18T04:39:44.303Z,13.43
2024-03-18T04:40:44.405Z,13.35
2024-03-18T04:41:44.373Z,13.29
2024-03-18T04:42:44.488Z,13.32
2024-03-18T04:44:11.557Z,13.37
2024-03-18T04:44:44.505Z,13.37
2024-03-18T04:45:52.080Z,13.41
2024-03-18T04:48:28.943Z,13.28
2024-03-18T04:48:56.575Z,13.41
2024-03-18T04:50:26.683Z,13.48
2024-03-18T04:50:56.628Z,13.45
2024-03-18T04:51:56.600Z,13.51
2024-03-18T04:54:39.015Z,13.33
2024-03-18T04:55:00.931Z,13.43
2024-03-18T04:56:00.954Z,13.51
2024-03-18T04:57:00.931Z,13.55
2024-03-18T04:58:29.577Z,13.50
2024-03-18T04:59:00.970Z,13.45
2024-03-18T05:00:00.992Z,13.51
2024-03-18T05:01:01.217Z,13.54
2024-03-18T05:02:00.966Z,13.56
2024-03-18T05:03:33.526Z,13.55
2024-03-18T05:04:01.191Z,13.48
2024-03-18T05:05:38.260Z,13.43
2024-03-18T05:06:01.275Z,13.36
2024-03-18T05:07:01.215Z,13.43
2024-03-18T05:08:01.245Z,13.40
2024-03-18T05:09:32.376Z,13.40
2024-03-18T05:10:01.264Z,13.38
2024-03-18T05:11:38.735Z,13.46
2024-03-18T05:12:01.267Z,13.41
2024-03-18T05:13:01.252Z,13.47
2024-03-18T05:14:01.287Z,13.51
2024-03-18T05:15:01.179Z,13.53
2024-03-18T05:16:01.204Z,13.54
2024-03-18T05:17:01.271Z,13.53
2024-03-18T05:18:01.754Z,13.53
2024-03-18T05:19:01.234Z,13.54
2024-03-18T05:20:01.257Z,13.48
2024-03-18T05:21:01.250Z,13.47
2024-03-18T05:22:01.241Z,13.50
2024-03-18T05:23:01.258Z,13.42
2024-03-18T05:24:04.605Z,13.34
2024-03-18T05:25:01.239Z,13.30
2024-03-18T05:26:01.244Z,13.26
2024-03-18T05:27:01.746Z,13.31
2024-03-18T05:28:01.252Z,13.39
2024-03-18T05:29:01.275Z,13.39
2024-03-18T05:30:01.240Z,13.36
2024-03-18T05:31:01.259Z,13.36
2024-03-18T05:32:01.346Z,13.34
2024-03-18T05:33:01.215Z,13.37
2024-03-18T05:34:01.253Z,13.42
2024-03-18T05:35:01.314Z,13.46
2024-03-18T05:36:01.254Z,13.48
2024-03-18T05:37:01.241Z,13.49
2024-03-18T05:38:01.301Z,13.50
2024-03-18T05:39:01.271Z,13.52
2024-03-18T05:40:01.286Z,13.55
2024-03-18T05:41:01.271Z,13.55
2024-03-18T05:42:01.275Z,13.45
2024-03-18T05:43:01.365Z,13.29
2024-03-18T05:44:01.283Z,13.15
2024-03-18T05:45:01.280Z,13.07
2024-03-18T05:46:01.314Z,13.00
2024-03-18T05:47:01.317Z,12.98
2024-03-18T05:48:01.304Z,13.08
2024-03-18T05:49:01.287Z,13.15
2024-03-18T05:50:01.266Z,13.09
2024-03-18T05:51:01.740Z,13.06
2024-03-18T05:52:01.262Z,13.13
2024-03-18T05:53:01.355Z,13.16
2024-03-18T05:54:01.287Z,13.11
2024-03-18T05:55:01.285Z,13.05
2024-03-18T05:56:01.771Z,13.12
2024-03-18T05:57:01.275Z,13.20
2024-03-18T05:58:01.290Z,13.27
2024-03-18T05:59:01.377Z,13.30
2024-03-18T06:00:01.350Z,13.35
2024-03-18T06:01:01.786Z,13.29
2024-03-18T06:02:01.494Z,13.29
2024-03-18T06:03:01.647Z,13.28
2024-03-18T06:04:01.672Z,13.19
2024-03-18T06:05:01.779Z,13.25
2024-03-18T06:06:02.290Z,13.29
2024-03-18T06:07:01.954Z,13.34
2024-03-18T06:08:02.000Z,13.37
2024-03-18T06:09:02.061Z,13.30
2024-03-18T06:10:02.192Z,13.34
2024-03-18T06:11:02.202Z,13.35
2024-03-18T06:12:02.265Z,13.33
2024-03-18T06:13:02.349Z,13.30
2024-03-18T06:14:02.492Z,13.31
2024-03-18T06:15:02.504Z,13.33
2024-03-18T06:16:02.506Z,13.35
2024-03-18T06:17:02.618Z,13.40
2024-03-18T06:18:02.666Z,13.43
2024-03-18T06:19:02.717Z,13.45
2024-03-18T06:20:02.801Z,13.48
2024-03-18T06:21:03.281Z,13.46
2024-03-18T06:22:02.922Z,13.44
2024-03-18T06:23:02.970Z,13.35
2024-03-18T06:24:03.009Z,13.26
2024-03-18T06:25:03.097Z,13.19
2024-03-18T06:26:03.136Z,13.22
2024-03-18T06:27:03.183Z,13.18
2024-03-18T06:28:03.271Z,13.18
2024-03-18T06:29:03.427Z,13.18
2024-03-18T06:30:03.427Z,13.16
2024-03-18T06:31:03.769Z,13.15
2024-03-18T06:32:03.557Z,13.12
2024-03-18T06:33:03.588Z,13.17
2024-03-18T06:34:03.607Z,13.22
2024-03-18T06:35:03.726Z,13.23
2024-03-18T06:36:03.758Z,13.23
2024-03-18T06:37:03.737Z,13.28
2024-03-18T06:38:03.828Z,13.32
2024-03-18T06:39:03.840Z,13.33
2024-03-18T06:40:03.904Z,13.22
2024-03-18T06:41:03.945Z,13.25
2024-03-18T06:42:04.033Z,13.30
2024-03-18T06:43:04.171Z,13.22
2024-03-18T06:44:04.183Z,13.22
2024-03-18T06:45:04.340Z,13.25
2024-03-18T06:46:04.300Z,13.31
2024-03-18T06:47:04.415Z,13.37
2024-03-18T06:48:04.451Z,13.44
2024-03-18T06:49:04.531Z,13.50
2024-03-18T06:50:04.661Z,13.49
2024-03-18T06:51:04.821Z,13.52
2024-03-18T06:52:04.746Z,13.54
2024-03-18T06:53:04.806Z,13.57
2024-03-18T06:54:04.924Z,13.58
2024-03-18T06:55:04.994Z,13.60
2024-03-18T06:56:05.026Z,13.57
2024-03-18T06:57:05.071Z,13.57
2024-03-18T06:58:05.186Z,13.59
2024-03-18T06:59:05.211Z,13.62
2024-03-18T07:00:05.254Z,13.63
2024-03-18T07:01:05.301Z,13.66
2024-03-18T07:02:05.392Z,13.66
2024-03-18T07:03:05.409Z,13.66
2024-03-18T07:04:05.515Z,13.66
2024-03-18T07:05:05.592Z,13.68
2024-03-18T07:06:06.273Z,13.68
2024-03-18T07:07:05.723Z,13.69
2024-03-18T07:08:05.865Z,13.68
2024-03-18T07:09:05.798Z,13.70
2024-03-18T07:10:05.886Z,13.72
2024-03-18T07:11:05.971Z,13.72
2024-03-18T07:12:06.012Z,13.75
2024-03-18T07:13:06.073Z,13.74
2024-03-18T07:14:06.101Z,13.76
2024-03-18T07:15:06.112Z,13.77
2024-03-18T07:16:06.208Z,13.72
2024-03-18T07:17:06.227Z,13.75
2024-03-18T07:18:06.267Z,13.76
2024-03-18T07:19:06.254Z,13.79
2024-03-18T07:20:14.920Z,13.76
2024-03-18T07:21:07.282Z,13.70
2024-03-18T07:22:07.308Z,13.58
2024-03-18T07:23:06.366Z,13.49
2024-03-18T07:24:06.353Z,13.52
2024-03-18T07:25:06.305Z,13.58
2024-03-18T07:26:06.311Z,13.63
2024-03-18T07:27:06.351Z,13.66
2024-03-18T07:28:06.330Z,13.66
2024-03-18T07:29:06.417Z,13.61
2024-03-18T07:30:06.360Z,13.47
2024-03-18T07:31:06.400Z,13.42
2024-03-18T07:32:06.343Z,13.31
2024-03-18T07:33:06.315Z,13.37
2024-03-18T07:34:06.364Z,13.36
2024-03-18T07:35:14.576Z,13.31
2024-03-18T07:36:07.342Z,13.29
2024-03-18T07:37:06.371Z,13.29
2024-03-18T07:38:15.123Z,13.27
2024-03-18T07:39:07.328Z,13.26
2024-03-18T07:40:06.352Z,13.23
2024-03-18T07:41:06.420Z,13.19
2024-03-18T07:42:06.321Z,13.20
2024-03-18T07:43:06.320Z,13.21
2024-03-18T07:45:45.038Z,13.04
2024-03-18T07:46:10.713Z,13.14
2024-03-18T07:47:10.724Z,13.18
2024-03-18T07:48:10.749Z,13.24
2024-03-18T07:49:10.730Z,13.24
2024-03-18T07:50:11.515Z,13.29
2024-03-18T07:51:10.764Z,13.29
2024-03-18T07:52:10.739Z,13.24
2024-03-18T07:53:10.769Z,13.19
2024-03-18T07:54:10.741Z,13.17
2024-03-18T07:55:10.789Z,13.12
2024-03-18T07:56:10.817Z,13.08
2024-03-18T07:57:10.845Z,13.11
2024-03-18T07:58:10.846Z,13.13
2024-03-18T07:59:10.828Z,13.14
2024-03-18T08:00:10.812Z,13.26
2024-03-18T08:01:10.843Z,13.34
2024-03-18T08:02:10.849Z,13.33
2024-03-18T08:03:10.916Z,13.33
2024-03-18T08:04:10.867Z,13.40
2024-03-18T08:05:10.885Z,13.39
2024-03-18T08:06:10.935Z,13.36
2024-03-18T08:07:10.960Z,13.33
2024-03-18T08:09:47.305Z,13.04
2024-03-18T08:10:15.898Z,13.13
2024-03-18T08:11:15.489Z,13.20
2024-03-18T08:12:15.326Z,13.26
2024-03-18T08:13:15.404Z,13.28
2024-03-18T08:14:15.338Z,13.34
2024-03-18T08:15:15.319Z,13.43
2024-03-18T08:16:15.378Z,13.48
2024-03-18T08:17:15.300Z,13.52
2024-03-18T08:18:15.494Z,13.46
2024-03-18T08:19:16.336Z,13.38
2024-03-18T08:20:15.379Z,13.37
2024-03-18T08:21:15.318Z,13.41
2024-03-18T08:22:20.800Z,13.43
2024-03-18T08:23:16.410Z,13.42
2024-03-18T08:24:15.358Z,13.43
2024-03-18T08:25:15.442Z,13.46
2024-03-18T08:26:15.420Z,13.50
2024-03-18T08:27:15.355Z,13.58
2024-03-18T08:28:15.326Z,13.63
2024-03-18T08:29:15.393Z,13.66
2024-03-18T08:30:15.361Z,13.70
2024-03-18T08:31:15.353Z,13.68
2024-03-18T08:32:15.458Z,13.69
2024-03-18T08:33:23.192Z,13.69
2024-03-18T08:34:16.348Z,13.64
2024-03-18T08:35:15.380Z,13.62
2024-03-18T08:36:15.474Z,13.62
2024-03-18T08:37:15.372Z,13.64
2024-03-18T08:38:15.471Z,13.69
2024-03-18T08:39:15.341Z,13.69
2024-03-18T08:40:15.384Z,13.67
2024-03-18T08:41:15.396Z,13.70
2024-03-18T08:42:15.465Z,13.73
2024-03-18T08:43:15.534Z,13.75
2024-03-18T08:44:15.559Z,13.77
2024-03-18T08:45:15.646Z,13.83
2024-03-18T08:46:15.734Z,13.84
2024-03-18T08:47:15.831Z,13.81
2024-03-18T08:48:15.995Z,13.70
2024-03-18T08:49:15.912Z,13.70
2024-03-18T08:50:16.109Z,13.70
2024-03-18T08:51:16.440Z,13.69
2024-03-18T08:52:16.078Z,13.70
2024-03-18T08:53:16.199Z,13.65
2024-03-18T08:54:16.244Z,13.68
2024-03-18T08:55:16.306Z,13.70
2024-03-18T08:56:16.354Z,13.67
2024-03-18T08:57:16.462Z,13.68
2024-03-18T08:58:16.530Z,13.75
2024-03-18T08:59:16.545Z,13.78
2024-03-18T09:00:16.653Z,13.80
2024-03-18T09:01:16.678Z,13.81
2024-03-18T09:02:16.786Z,13.86
2024-03-18T09:03:19.148Z,13.84
2024-03-18T09:04:16.998Z,13.89
2024-03-18T09:05:17.070Z,13.79
2024-03-18T09:06:17.375Z,13.75
2024-03-18T09:07:17.170Z,13.69
2024-03-18T09:08:17.242Z,13.67
2024-03-18T09:09:17.300Z,13.68
2024-03-18T09:10:17.364Z,13.72
2024-03-18T09:11:17.500Z,13.75
2024-03-18T09:12:17.521Z,13.76
2024-03-18T09:13:17.593Z,13.76
2024-03-18T09:14:17.553Z,13.76
2024-03-18T09:15:17.650Z,13.74
2024-03-18T09:16:17.862Z,13.71
2024-03-18T09:17:17.649Z,13.69
2024-03-18T09:18:17.688Z,13.69
2024-03-18T09:19:17.747Z,13.69
2024-03-18T09:20:17.818Z,13.72
2024-03-18T09:21:17.915Z,13.78
2024-03-18T09:22:17.862Z,13.82
2024-03-18T09:23:17.875Z,13.86
2024-03-18T09:24:17.883Z,13.93
2024-03-18T09:25:17.938Z,13.93
2024-03-18T09:26:17.930Z,14.00
2024-03-18T09:27:17.974Z,14.05
2024-03-18T09:28:18.145Z,14.02
2024-03-18T09:29:18.023Z,13.98
2024-03-18T09:30:18.072Z,14.03
2024-03-18T09:31:18.029Z,13.95
2024-03-18T09:32:18.088Z,13.92
2024-03-18T09:33:18.034Z,13.90
2024-03-18T09:34:18.054Z,13.87
2024-03-18T09:35:18.110Z,13.91
2024-03-18T09:36:18.197Z,13.93
2024-03-18T09:37:18.113Z,13.93
2024-03-18T09:38:18.125Z,13.94
2024-03-18T09:39:18.157Z,14.02
2024-03-18T09:40:18.182Z,14.06
2024-03-18T09:41:18.432Z,14.08
2024-03-18T09:42:18.193Z,14.12
2024-03-18T09:43:18.224Z,14.15
2024-03-18T09:44:18.179Z,14.21
2024-03-18T09:45:18.308Z,14.24
2024-03-18T09:46:18.232Z,14.27
2024-03-18T09:47:18.388Z,14.35
2024-03-18T09:48:18.350Z,14.33
2024-03-18T09:49:18.335Z,14.37
2024-03-18T09:50:18.357Z,14.46
2024-03-18T09:51:18.967Z,14.48
2024-03-18T09:52:18.500Z,14.47
2024-03-18T09:53:18.600Z,14.45
2024-03-18T09:54:18.709Z,14.44
2024-03-18T09:55:18.716Z,14.43
2024-03-18T09:56:18.845Z,14.43
2024-03-18T09:57:18.884Z,14.42
2024-03-18T09:58:18.991Z,14.40
2024-03-18T09:59:19.017Z,14.44
2024-03-18T10:00:19.073Z,14.48
2024-03-18T10:01:19.389Z,14.49
2024-03-18T10:02:19.204Z,14.46
2024-03-18T10:03:19.255Z,14.44
2024-03-18T10:04:19.308Z,14.46
2024-03-18T10:05:19.573Z,14.42
2024-03-18T10:06:19.481Z,14.40
2024-03-18T10:07:19.538Z,14.44
2024-03-18T10:08:19.607Z,14.44
2024-03-18T10:09:19.722Z,14.46
2024-03-18T10:10:19.723Z,14.48
2024-03-18T10:11:19.834Z,14.49
2024-03-18T10:12:19.824Z,14.47
2024-03-18T10:13:19.943Z,14.47
2024-03-18T10:14:20.038Z,14.50
2024-03-18T10:15:20.125Z,14.51
2024-03-18T10:16:20.160Z,14.50
2024-03-18T10:17:20.182Z,14.53
2024-03-18T10:18:20.236Z,14.56
2024-03-18T10:19:20.258Z,14.58
2024-03-18T10:20:20.465Z,14.60
2024-03-18T10:21:20.410Z,14.64
2024-03-18T10:22:20.514Z,14.68
2024-03-18T10:23:20.472Z,14.67
2024-03-18T10:24:20.505Z,14.70
2024-03-18T10:25:20.575Z,14.79
2024-03-18T10:26:20.550Z,14.85
2024-03-18T10:27:20.623Z,14.89
2024-03-18T10:28:20.643Z,15.00
2024-03-18T10:29:21.394Z,15.05
2024-03-18T10:30:20.664Z,15.09
2024-03-18T10:31:20.931Z,15.07
2024-03-18T10:32:20.693Z,15.01
2024-03-18T10:33:20.690Z,14.99
2024-03-18T10:34:20.723Z,14.98
2024-03-18T10:35:21.129Z,14.99
2024-03-18T10:36:22.741Z,14.99
2024-03-18T10:37:20.800Z,15.00
2024-03-18T10:38:22.401Z,14.98
2024-03-18T10:41:14.724Z,14.74
2024-03-18T10:42:14.707Z,14.78
2024-03-18T10:42:37.353Z,14.72
2024-03-18T10:45:18.672Z,14.54
2024-03-18T10:45:41.504Z,14.67
2024-03-18T10:48:43.980Z,14.74
2024-03-18T10:49:04.922Z,14.83
2024-03-18T10:50:05.657Z,14.86
2024-03-18T10:51:04.894Z,14.86
2024-03-18T10:52:05.111Z,14.89
2024-03-18T10:53:04.844Z,14.91
2024-03-18T10:54:04.979Z,14.86
2024-03-18T10:55:04.820Z,14.87
2024-03-18T10:56:04.844Z,14.93
2024-03-18T10:57:04.904Z,14.90
2024-03-18T10:58:05.077Z,14.90
2024-03-18T10:59:32.287Z,14.91
2024-03-18T11:00:04.878Z,14.86
2024-03-18T11:01:04.882Z,14.95
2024-03-18T11:02:05.585Z,14.89
2024-03-18T11:03:05.106Z,14.84
2024-03-18T11:04:05.310Z,14.86
2024-03-18T11:05:05.099Z,14.94
2024-03-18T11:06:05.207Z,15.00
2024-03-18T11:07:05.341Z,14.97
2024-03-18T11:08:05.514Z,14.92
2024-03-18T11:09:05.131Z,14.93
2024-03-18T11:10:05.126Z,14.97
2024-03-18T11:11:05.168Z,15.03
2024-03-18T11:12:05.594Z,15.04
2024-03-18T11:13:05.169Z,14.97
2024-03-18T11:14:05.547Z,14.91
2024-03-18T11:15:05.186Z,14.90
2024-03-18T11:16:05.255Z,14.90
2024-03-18T11:17:07.053Z,14.89
2024-03-18T11:18:05.226Z,14.89
2024-03-18T11:19:05.275Z,14.92
2024-03-18T11:20:05.256Z,14.94
2024-03-18T11:21:05.271Z,14.93
2024-03-18T11:22:05.259Z,14.88
2024-03-18T11:23:05.237Z,14.95
2024-03-18T11:24:06.043Z,14.99
2024-03-18T11:25:05.229Z,14.94
2024-03-18T11:26:05.263Z,14.95
2024-03-18T11:27:05.556Z,14.97
2024-03-18T11:28:05.281Z,14.96
2024-03-18T11:29:05.282Z,14.98
2024-03-18T11:30:05.280Z,15.05
2024-03-18T11:31:05.274Z,15.08
2024-03-18T11:32:05.541Z,15.09
2024-03-18T11:33:05.288Z,15.14
2024-03-18T11:34:05.316Z,15.19
2024-03-18T11:35:05.263Z,15.19
2024-03-18T11:36:05.222Z,15.24
2024-03-18T11:37:05.243Z,15.18
2024-03-18T11:38:05.305Z,15.14
2024-03-18T11:39:06.281Z,15.12
2024-03-18T11:40:05.276Z,15.11
2024-03-18T11:41:05.263Z,14.98
2024-03-18T11:42:05.393Z,14.95
2024-03-18T11:43:05.295Z,15.01
2024-03-18T11:44:05.277Z,15.00
2024-03-18T11:45:05.255Z,14.99
2024-03-18T11:46:05.380Z,15.00
2024-03-18T11:47:34.227Z,15.02
2024-03-18T11:48:05.383Z,15.11
2024-03-18T11:49:05.337Z,15.34
2024-03-18T11:50:05.378Z,15.49
2024-03-18T11:51:05.320Z,15.57
2024-03-18T11:52:05.692Z,15.50
2024-03-18T11:53:05.324Z,15.47
2024-03-18T11:54:05.271Z,15.34
2024-03-18T11:55:05.278Z,15.27
2024-03-18T11:56:05.322Z,15.29
2024-03-18T11:57:05.538Z,15.22
2024-03-18T12:04:13.630Z,14.80
2024-03-18T12:04:43.873Z,14.97
2024-03-18T12:05:43.847Z,15.11
2024-03-18T12:06:45.782Z,15.16
2024-03-18T12:07:43.860Z,15.11
2024-03-18T12:08:43.866Z,15.06
2024-03-18T12:09:43.889Z,15.04
2024-03-18T12:10:43.874Z,15.03
2024-03-18T12:11:43.904Z,14.98
2024-03-18T12:12:43.960Z,14.94
2024-03-18T12:13:43.873Z,14.87
2024-03-18T12:14:43.858Z,14.87
2024-03-18T12:15:43.866Z,14.95
2024-03-18T12:16:43.895Z,15.02
2024-03-18T12:17:43.881Z,15.05
2024-03-18T12:18:45.177Z,14.98
2024-03-18T12:19:46.491Z,14.94
2024-03-18T12:20:43.864Z,14.90
2024-03-18T12:21:44.115Z,14.91
2024-03-18T12:22:43.919Z,14.97
2024-03-18T12:23:43.880Z,14.94
2024-03-18T12:24:43.876Z,14.97
2024-03-18T12:25:43.862Z,15.02
2024-03-18T12:26:43.974Z,15.06
2024-03-18T12:27:43.894Z,15.13
2024-03-18T12:28:43.885Z,15.20
2024-03-18T12:29:43.887Z,15.28
2024-03-18T12:30:43.881Z,15.33
2024-03-18T12:31:43.925Z,15.35
2024-03-18T12:32:43.915Z,15.34
2024-03-18T12:33:43.887Z,15.33
2024-03-18T12:34:43.916Z,15.35
2024-03-18T12:35:47.036Z,15.40
2024-03-18T12:36:43.897Z,15.46
2024-03-18T12:37:43.900Z,15.51
2024-03-18T12:38:43.887Z,15.54
2024-03-18T12:39:43.919Z,15.59
2024-03-18T12:40:43.925Z,15.53
2024-03-18T12:41:43.933Z,15.50
2024-03-18T12:42:43.942Z,15.54
2024-03-18T12:43:43.900Z,15.58
2024-03-18T12:44:43.874Z,15.56
2024-03-18T12:45:43.926Z,15.51
2024-03-18T12:46:44.108Z,15.50
2024-03-18T12:47:43.921Z,15.47
2024-03-18T12:48:44.106Z,15.47
2024-03-18T12:49:43.914Z,15.50
2024-03-18T12:50:43.912Z,15.40
2024-03-18T12:51:44.194Z,15.42
2024-03-18T12:52:43.924Z,15.48
2024-03-18T12:53:43.922Z,15.49
2024-03-18T12:54:43.915Z,15.50
2024-03-18T12:55:43.924Z,15.58
2024-03-18T12:56:43.941Z,15.63
2024-03-18T12:57:43.951Z,15.66
2024-03-18T12:58:43.933Z,15.64
2024-03-18T12:59:43.925Z,15.60
2024-03-18T13:00:43.976Z,15.52
2024-03-18T13:01:43.938Z,15.50
2024-03-18T13:02:43.951Z,15.49
2024-03-18T13:03:43.939Z,15.54
2024-03-18T13:04:43.941Z,15.56
2024-03-18T13:05:43.940Z,15.55
2024-03-18T13:06:43.953Z,15.41